T7HHH SBSP-SBRJ
Flight info
| Callsign | T7HHH |
|---|---|
| Flight time | 0h 35m |
| Altitude | 29000 |
| Route | NIBRU UZ171 KEVUN |
| Aircraft | A20N/M-SDE2E3FGHIRWXY/LB1 |
Departure
| Time | 2026-05-07 02:59 |
|---|---|
| Airport | Congonhas–Deputado Freitas Nobre Airport (SBSP) |
Arrival
| Time | 2026-05-07 03:34 |
|---|---|
| Airport | Santos Dumont Airport (SBRJ) |
| Time | Latitude | Longitude | Altitude | Speed | Heading |
|---|---|---|---|---|---|
| 2026-05-07 02:52 | -23.62518 | -46.65907 | 2596 ft | 0 kts | 329° |
| 2026-05-07 02:54 | -23.62505 | -46.65913 | 2596 ft | 3 kts | 351° |
| 2026-05-07 02:54 | -23.62475 | -46.65913 | 2596 ft | 4 kts | 2° |
| 2026-05-07 02:54 | -23.62441 | -46.65914 | 2596 ft | 5 kts | 345° |
| 2026-05-07 02:55 | -23.62398 | -46.65941 | 2595 ft | 9 kts | 327° |
| 2026-05-07 02:55 | -23.62333 | -46.65987 | 2593 ft | 12 kts | 328° |
| 2026-05-07 02:55 | -23.62258 | -46.66035 | 2590 ft | 12 kts | 331° |
| 2026-05-07 02:55 | -23.62185 | -46.66080 | 2588 ft | 10 kts | 329° |
| 2026-05-07 02:56 | -23.62138 | -46.66112 | 2586 ft | 8 kts | 327° |
| 2026-05-07 02:56 | -23.62129 | -46.66119 | 2586 ft | 0 kts | 328° |
| 2026-05-07 02:57 | -23.62098 | -46.66135 | 2584 ft | 9 kts | 344° |
| 2026-05-07 02:58 | -23.62026 | -46.66118 | 2584 ft | 9 kts | 58° |
| 2026-05-07 02:58 | -23.62039 | -46.66081 | 2585 ft | 0 kts | 147° |
| 2026-05-07 02:58 | -23.62056 | -46.66070 | 2585 ft | 21 kts | 148° |
| 2026-05-07 02:58 | -23.62454 | -46.65794 | 2600 ft | 108 kts | 147° |
| 2026-05-07 02:59 | -23.63279 | -46.65226 | 2774 ft | 159 kts | 146° |
| 2026-05-07 02:59 | -23.64201 | -46.64582 | 3522 ft | 162 kts | 142° |
| 2026-05-07 02:59 | -23.64942 | -46.63707 | 4374 ft | 160 kts | 118° |
| 2026-05-07 02:59 | -23.65488 | -46.62610 | 5084 ft | 173 kts | 115° |
| 2026-05-07 03:00 | -23.66055 | -46.61391 | 5764 ft | 191 kts | 115° |
| 2026-05-07 03:00 | -23.66692 | -46.60056 | 6395 ft | 213 kts | 115° |
| 2026-05-07 03:00 | -23.67417 | -46.58571 | 7127 ft | 233 kts | 116° |
| 2026-05-07 03:00 | -23.68225 | -46.56945 | 7909 ft | 253 kts | 117° |
| 2026-05-07 03:01 | -23.69085 | -46.55229 | 8662 ft | 271 kts | 117° |
| 2026-05-07 03:01 | -23.70017 | -46.53377 | 9490 ft | 287 kts | 117° |
| 2026-05-07 03:01 | -23.70978 | -46.51463 | 10515 ft | 293 kts | 116° |
| 2026-05-07 03:01 | -23.71677 | -46.49370 | 11308 ft | 304 kts | 100° |
| 2026-05-07 03:02 | -23.71796 | -46.47010 | 11899 ft | 321 kts | 84° |
| 2026-05-07 03:02 | -23.71472 | -46.44513 | 12427 ft | 340 kts | 81° |
| 2026-05-07 03:02 | -23.71080 | -46.41910 | 12886 ft | 358 kts | 81° |
| 2026-05-07 03:02 | -23.70669 | -46.39175 | 13275 ft | 376 kts | 81° |
| 2026-05-07 03:03 | -23.70242 | -46.36279 | 13599 ft | 395 kts | 81° |
| 2026-05-07 03:03 | -23.69807 | -46.33278 | 13975 ft | 409 kts | 81° |
| 2026-05-07 03:03 | -23.69361 | -46.30172 | 14606 ft | 415 kts | 81° |
| 2026-05-07 03:03 | -23.68914 | -46.27059 | 15296 ft | 419 kts | 82° |
| 2026-05-07 03:04 | -23.68461 | -46.23893 | 15976 ft | 423 kts | 82° |
| 2026-05-07 03:04 | -23.68010 | -46.20741 | 16625 ft | 428 kts | 82° |
| 2026-05-07 03:04 | -23.67549 | -46.17524 | 17266 ft | 432 kts | 82° |
| 2026-05-07 03:04 | -23.67079 | -46.14250 | 17886 ft | 437 kts | 82° |
| 2026-05-07 03:05 | -23.66609 | -46.10985 | 18475 ft | 442 kts | 82° |
| 2026-05-07 03:05 | -23.66129 | -46.07647 | 19049 ft | 447 kts | 83° |
| 2026-05-07 03:05 | -23.65648 | -46.04296 | 19614 ft | 452 kts | 83° |
| 2026-05-07 03:05 | -23.65156 | -46.00875 | 20171 ft | 457 kts | 83° |
| 2026-05-07 03:06 | -23.64667 | -45.97473 | 20710 ft | 462 kts | 83° |
| 2026-05-07 03:06 | -23.64164 | -45.93990 | 21243 ft | 467 kts | 83° |
| 2026-05-07 03:06 | -23.63658 | -45.90485 | 21775 ft | 471 kts | 83° |
| 2026-05-07 03:06 | -23.63148 | -45.86957 | 22298 ft | 475 kts | 83° |
| 2026-05-07 03:07 | -23.62631 | -45.83393 | 22815 ft | 479 kts | 83° |
| 2026-05-07 03:07 | -23.62103 | -45.79751 | 23324 ft | 483 kts | 83° |
| 2026-05-07 03:07 | -23.61580 | -45.76153 | 23788 ft | 487 kts | 83° |
| 2026-05-07 03:07 | -23.61049 | -45.72502 | 24245 ft | 490 kts | 83° |
| 2026-05-07 03:08 | -23.60509 | -45.68813 | 24853 ft | 490 kts | 84° |
| 2026-05-07 03:08 | -23.59974 | -45.65164 | 25510 ft | 488 kts | 84° |
| 2026-05-07 03:08 | -23.59446 | -45.61565 | 26525 ft | 477 kts | 84° |
| 2026-05-07 03:08 | -23.58937 | -45.58112 | 27603 ft | 464 kts | 85° |
| 2026-05-07 03:09 | -23.58425 | -45.54625 | 28418 ft | 461 kts | 85° |
| 2026-05-07 03:09 | -23.57923 | -45.51181 | 28938 ft | 464 kts | 85° |
| 2026-05-07 03:09 | -23.57401 | -45.47694 | 29149 ft | 476 kts | 84° |
| 2026-05-07 03:09 | -23.56730 | -45.44132 | 29152 ft | 491 kts | 81° |
| 2026-05-07 03:10 | -23.55962 | -45.40454 | 29147 ft | 502 kts | 81° |
| 2026-05-07 03:10 | -23.55168 | -45.36737 | 29148 ft | 505 kts | 81° |
| 2026-05-07 03:10 | -23.53566 | -45.29258 | 29139 ft | 506 kts | 80° |
| 2026-05-07 03:11 | -23.51554 | -45.21904 | 29144 ft | 508 kts | 73° |
| 2026-05-07 03:11 | -23.49162 | -45.14710 | 29139 ft | 508 kts | 73° |
| 2026-05-07 03:12 | -23.46818 | -45.07451 | 29141 ft | 507 kts | 74° |
| 2026-05-07 03:12 | -23.44532 | -45.00196 | 29140 ft | 507 kts | 74° |
| 2026-05-07 03:13 | -23.42221 | -44.92944 | 29140 ft | 507 kts | 73° |
| 2026-05-07 03:13 | -23.39844 | -44.85746 | 29138 ft | 507 kts | 73° |
| 2026-05-07 03:14 | -23.37455 | -44.78535 | 29137 ft | 508 kts | 73° |
| 2026-05-07 03:15 | -23.33863 | -44.67674 | 29128 ft | 507 kts | 73° |
| 2026-05-07 03:15 | -23.31492 | -44.60504 | 28956 ft | 501 kts | 74° |
| 2026-05-07 03:15 | -23.30318 | -44.56961 | 28175 ft | 498 kts | 73° |
| 2026-05-07 03:16 | -23.29159 | -44.53448 | 26901 ft | 501 kts | 73° |
| 2026-05-07 03:16 | -23.27972 | -44.49856 | 25530 ft | 504 kts | 73° |
| 2026-05-07 03:16 | -23.26806 | -44.46341 | 24238 ft | 503 kts | 72° |
| 2026-05-07 03:16 | -23.25624 | -44.42794 | 23247 ft | 494 kts | 72° |
| 2026-05-07 03:17 | -23.24460 | -44.39306 | 22432 ft | 483 kts | 72° |
| 2026-05-07 03:17 | -23.23340 | -44.35959 | 21657 ft | 472 kts | 72° |
| 2026-05-07 03:17 | -23.22227 | -44.32623 | 20786 ft | 465 kts | 71° |
| 2026-05-07 03:17 | -23.21132 | -44.29340 | 19894 ft | 459 kts | 71° |
| 2026-05-07 03:18 | -23.20063 | -44.26139 | 19015 ft | 453 kts | 71° |
| 2026-05-07 03:18 | -23.18992 | -44.22930 | 18140 ft | 447 kts | 71° |
| 2026-05-07 03:18 | -23.17946 | -44.19795 | 17230 ft | 442 kts | 71° |
| 2026-05-07 03:18 | -23.16905 | -44.16680 | 16364 ft | 437 kts | 71° |
| 2026-05-07 03:19 | -23.15874 | -44.13597 | 15595 ft | 430 kts | 70° |
| 2026-05-07 03:19 | -23.14866 | -44.10587 | 14881 ft | 422 kts | 70° |
| 2026-05-07 03:19 | -23.13869 | -44.07613 | 14175 ft | 414 kts | 70° |
| 2026-05-07 03:19 | -23.12900 | -44.04723 | 13481 ft | 407 kts | 70° |
| 2026-05-07 03:20 | -23.11944 | -44.01877 | 12857 ft | 398 kts | 70° |
| 2026-05-07 03:20 | -23.11006 | -43.99094 | 12435 ft | 384 kts | 70° |
| 2026-05-07 03:20 | -23.10103 | -43.96413 | 12117 ft | 368 kts | 70° |
| 2026-05-07 03:20 | -23.09240 | -43.93851 | 11840 ft | 354 kts | 69° |
| 2026-05-07 03:21 | -23.08416 | -43.91406 | 11602 ft | 339 kts | 69° |
| 2026-05-07 03:21 | -23.07627 | -43.89062 | 11402 ft | 325 kts | 69° |
| 2026-05-07 03:21 | -23.06864 | -43.86797 | 11171 ft | 313 kts | 69° |
| 2026-05-07 03:21 | -23.06124 | -43.84604 | 10858 ft | 306 kts | 70° |
| 2026-05-07 03:22 | -23.05401 | -43.82459 | 10651 ft | 295 kts | 69° |
| 2026-05-07 03:22 | -23.04716 | -43.80426 | 10478 ft | 284 kts | 69° |
| 2026-05-07 03:22 | -23.04047 | -43.78440 | 10295 ft | 275 kts | 69° |
| 2026-05-07 03:22 | -23.03399 | -43.76521 | 10135 ft | 268 kts | 69° |
| 2026-05-07 03:23 | -23.02755 | -43.74617 | 9891 ft | 267 kts | 69° |
| 2026-05-07 03:23 | -23.02116 | -43.72729 | 9516 ft | 268 kts | 69° |
| 2026-05-07 03:23 | -23.01466 | -43.70809 | 9143 ft | 268 kts | 69° |
| 2026-05-07 03:23 | -23.00829 | -43.68928 | 8780 ft | 268 kts | 69° |
| 2026-05-07 03:24 | -23.00182 | -43.67019 | 8413 ft | 268 kts | 69° |
| 2026-05-07 03:24 | -22.99544 | -43.65136 | 8059 ft | 266 kts | 69° |
| 2026-05-07 03:24 | -22.98897 | -43.63228 | 7698 ft | 265 kts | 69° |
| 2026-05-07 03:24 | -22.98275 | -43.61367 | 7348 ft | 264 kts | 70° |
| 2026-05-07 03:25 | -22.97658 | -43.59497 | 6995 ft | 263 kts | 70° |
| 2026-05-07 03:25 | -22.97037 | -43.57614 | 6632 ft | 261 kts | 70° |
| 2026-05-07 03:25 | -22.96427 | -43.55766 | 6287 ft | 260 kts | 70° |
| 2026-05-07 03:25 | -22.95823 | -43.53940 | 6005 ft | 255 kts | 69° |
| 2026-05-07 03:26 | -22.95242 | -43.52182 | 5958 ft | 240 kts | 69° |
| 2026-05-07 03:26 | -22.94653 | -43.50533 | 5950 ft | 228 kts | 65° |
| 2026-05-07 03:26 | -22.93984 | -43.48936 | 5959 ft | 234 kts | 65° |
| 2026-05-07 03:26 | -22.93303 | -43.47332 | 5689 ft | 235 kts | 65° |
| 2026-05-07 03:27 | -22.92620 | -43.45726 | 5349 ft | 235 kts | 65° |
| 2026-05-07 03:27 | -22.91929 | -43.44099 | 5019 ft | 234 kts | 65° |
| 2026-05-07 03:27 | -22.91252 | -43.42500 | 4738 ft | 230 kts | 65° |
| 2026-05-07 03:27 | -22.90597 | -43.40953 | 4597 ft | 221 kts | 64° |
| 2026-05-07 03:28 | -22.89965 | -43.39462 | 4431 ft | 214 kts | 64° |
| 2026-05-07 03:28 | -22.89353 | -43.38019 | 4265 ft | 207 kts | 64° |
| 2026-05-07 03:28 | -22.88754 | -43.36605 | 4104 ft | 200 kts | 64° |
| 2026-05-07 03:28 | -22.88198 | -43.35247 | 3951 ft | 195 kts | 68° |
| 2026-05-07 03:29 | -22.87740 | -43.33879 | 3821 ft | 189 kts | 69° |
| 2026-05-07 03:29 | -22.87313 | -43.32532 | 3632 ft | 186 kts | 69° |
| 2026-05-07 03:29 | -22.86901 | -43.31234 | 3493 ft | 178 kts | 69° |
| 2026-05-07 03:29 | -22.86498 | -43.29969 | 3241 ft | 174 kts | 69° |
| 2026-05-07 03:30 | -22.86110 | -43.28759 | 2956 ft | 169 kts | 69° |
| 2026-05-07 03:30 | -22.85733 | -43.27581 | 2652 ft | 159 kts | 69° |
| 2026-05-07 03:30 | -22.85445 | -43.26413 | 2407 ft | 161 kts | 84° |
| 2026-05-07 03:30 | -22.85563 | -43.25258 | 2164 ft | 148 kts | 96° |
| 2026-05-07 03:31 | -22.85731 | -43.24215 | 1951 ft | 134 kts | 97° |
| 2026-05-07 03:31 | -22.85888 | -43.23248 | 1769 ft | 126 kts | 96° |
| 2026-05-07 03:31 | -22.86029 | -43.22318 | 1620 ft | 125 kts | 97° |
| 2026-05-07 03:31 | -22.86168 | -43.21383 | 1462 ft | 125 kts | 96° |
| 2026-05-07 03:32 | -22.86302 | -43.20449 | 1296 ft | 125 kts | 97° |
| 2026-05-07 03:32 | -22.86436 | -43.19522 | 1135 ft | 124 kts | 97° |
| 2026-05-07 03:32 | -22.86570 | -43.18590 | 966 ft | 124 kts | 98° |
| 2026-05-07 03:32 | -22.86879 | -43.17723 | 829 ft | 125 kts | 121° |
| 2026-05-07 03:33 | -22.87500 | -43.17073 | 683 ft | 125 kts | 142° |
| 2026-05-07 03:33 | -22.88251 | -43.16594 | 472 ft | 125 kts | 156° |
| 2026-05-07 03:33 | -22.89103 | -43.16378 | 310 ft | 125 kts | 177° |
| 2026-05-07 03:33 | -22.89964 | -43.16360 | 140 ft | 124 kts | 176° |
| 2026-05-07 03:34 | -22.90826 | -43.16304 | 23 ft | 115 kts | 176° |
| 2026-05-07 03:34 | -22.91432 | -43.16263 | 22 ft | 35 kts | 174° |
| 2026-05-07 03:34 | -22.91492 | -43.16265 | 22 ft | 6 kts | 208° |
| 2026-05-07 03:34 | -22.91513 | -43.16311 | 22 ft | 8 kts | 262° |
| 2026-05-07 03:35 | -22.91512 | -43.16379 | 22 ft | 9 kts | 292° |
| 2026-05-07 03:35 | -22.91462 | -43.16439 | 22 ft | 11 kts | 316° |
| 2026-05-07 03:35 | -22.91400 | -43.16497 | 22 ft | 11 kts | 334° |
| 2026-05-07 03:35 | -22.91324 | -43.16510 | 22 ft | 9 kts | 356° |
| 2026-05-07 03:36 | -22.91249 | -43.16515 | 22 ft | 11 kts | 356° |
| 2026-05-07 03:36 | -22.91163 | -43.16522 | 22 ft | 13 kts | 354° |
| 2026-05-07 03:36 | -22.91070 | -43.16545 | 22 ft | 14 kts | 347° |
| 2026-05-07 03:36 | -22.90967 | -43.16553 | 22 ft | 15 kts | 357° |
| 2026-05-07 03:37 | -22.90857 | -43.16560 | 22 ft | 16 kts | 356° |
| 2026-05-07 03:37 | -22.90776 | -43.16568 | 22 ft | 4 kts | 324° |
| 2026-05-07 03:37 | -22.90775 | -43.16602 | 22 ft | 4 kts | 267° |
| 2026-05-07 03:37 | -22.90776 | -43.16615 | 22 ft | 1 kts | 266° |
| 2026-05-07 03:38 | -22.90776 | -43.16623 | 22 ft | 0 kts | 266° |